sensor_id;sensor_type;location;lat;lon;timestamp;temperature;humidity
17891;DHT22;9071;48.220;14.480;2023-03-16T00:02:46;0.60;99.90
17891;DHT22;9071;48.220;14.480;2023-03-16T00:07:48;0.70;99.90
17891;DHT22;9071;48.220;14.480;2023-03-16T00:12:50;0.50;99.90
17891;DHT22;9071;48.220;14.480;2023-03-16T00:17:54;0.40;99.90
17891;DHT22;9071;48.220;14.480;2023-03-16T00:22:56;0.30;99.90
17891;DHT22;9071;48.220;14.480;2023-03-16T00:27:58;0.40;99.90
17891;DHT22;9071;48.220;14.480;2023-03-16T00:33:04;0.30;99.90
17891;DHT22;9071;48.220;14.480;2023-03-16T00:38:06;0.20;99.90
17891;DHT22;9071;48.220;14.480;2023-03-16T00:43:08;0.00;99.90
17891;DHT22;9071;48.220;14.480;2023-03-16T00:48:12;-0.20;99.90
17891;DHT22;9071;48.220;14.480;2023-03-16T00:53:14;-0.20;99.90
17891;DHT22;9071;48.220;14.480;2023-03-16T00:58:16;-0.20;99.90
17891;DHT22;9071;48.220;14.480;2023-03-16T01:03:21;-0.20;99.90
17891;DHT22;9071;48.220;14.480;2023-03-16T01:08:23;-0.40;99.90
17891;DHT22;9071;48.220;14.480;2023-03-16T01:13:25;-0.50;99.90
17891;DHT22;9071;48.220;14.480;2023-03-16T01:18:29;-0.40;99.90
17891;DHT22;9071;48.220;14.480;2023-03-16T01:23:33;-0.60;99.90
17891;DHT22;9071;48.220;14.480;2023-03-16T01:28:36;-0.70;99.90
17891;DHT22;9071;48.220;14.480;2023-03-16T01:33:40;-0.80;99.90
17891;DHT22;9071;48.220;14.480;2023-03-16T01:38:42;-0.90;99.90
17891;DHT22;9071;48.220;14.480;2023-03-16T01:43:45;-0.90;99.90
17891;DHT22;9071;48.220;14.480;2023-03-16T01:48:55;-0.80;99.90
17891;DHT22;9071;48.220;14.480;2023-03-16T01:54:02;-0.90;99.90
17891;DHT22;9071;48.220;14.480;2023-03-16T01:59:09;-0.80;99.90
17891;DHT22;9071;48.220;14.480;2023-03-16T02:04:25;-0.80;99.90
17891;DHT22;9071;48.220;14.480;2023-03-16T02:09:31;-0.90;99.90
17891;DHT22;9071;48.220;14.480;2023-03-16T02:14:34;-0.80;99.90
17891;DHT22;9071;48.220;14.480;2023-03-16T02:19:41;-0.80;99.90
17891;DHT22;9071;48.220;14.480;2023-03-16T02:24:44;-0.80;99.90
17891;DHT22;9071;48.220;14.480;2023-03-16T02:29:54;-0.80;99.90
17891;DHT22;9071;48.220;14.480;2023-03-16T02:34:59;-1.00;99.90
17891;DHT22;9071;48.220;14.480;2023-03-16T02:40:15;-1.20;99.90
17891;DHT22;9071;48.220;14.480;2023-03-16T02:45:20;-1.20;99.90
17891;DHT22;9071;48.220;14.480;2023-03-16T02:50:23;-1.20;99.90
17891;DHT22;9071;48.220;14.480;2023-03-16T02:55:25;-1.10;99.90
17891;DHT22;9071;48.220;14.480;2023-03-16T03:00:28;-0.90;99.90
17891;DHT22;9071;48.220;14.480;2023-03-16T03:05:31;-1.00;99.90
17891;DHT22;9071;48.220;14.480;2023-03-16T03:10:33;-1.00;99.90
17891;DHT22;9071;48.220;14.480;2023-03-16T03:15:37;-1.00;99.90
17891;DHT22;9071;48.220;14.480;2023-03-16T03:20:40;-1.10;99.90
17891;DHT22;9071;48.220;14.480;2023-03-16T03:25:42;-1.30;99.90
17891;DHT22;9071;48.220;14.480;2023-03-16T03:30:46;-1.50;99.90
17891;DHT22;9071;48.220;14.480;2023-03-16T03:35:55;-1.40;99.90
17891;DHT22;9071;48.220;14.480;2023-03-16T03:40:57;-1.40;99.90
17891;DHT22;9071;48.220;14.480;2023-03-16T03:46:02;-1.50;99.90
17891;DHT22;9071;48.220;14.480;2023-03-16T03:51:05;-1.60;99.90
17891;DHT22;9071;48.220;14.480;2023-03-16T03:56:07;-1.60;99.90
17891;DHT22;9071;48.220;14.480;2023-03-16T04:01:10;-1.80;99.90
17891;DHT22;9071;48.220;14.480;2023-03-16T04:06:13;-2.00;99.90
17891;DHT22;9071;48.220;14.480;2023-03-16T04:11:15;-2.10;99.90
17891;DHT22;9071;48.220;14.480;2023-03-16T04:16:18;-2.10;99.90
17891;DHT22;9071;48.220;14.480;2023-03-16T04:21:21;-1.80;99.90
17891;DHT22;9071;48.220;14.480;2023-03-16T04:26:23;-1.70;99.90
17891;DHT22;9071;48.220;14.480;2023-03-16T04:31:27;-1.70;99.90
17891;DHT22;9071;48.220;14.480;2023-03-16T04:36:30;-1.80;99.90
17891;DHT22;9071;48.220;14.480;2023-03-16T04:41:32;-1.80;99.90
17891;DHT22;9071;48.220;14.480;2023-03-16T04:46:36;-2.00;99.90
17891;DHT22;9071;48.220;14.480;2023-03-16T04:51:38;-2.00;99.90
17891;DHT22;9071;48.220;14.480;2023-03-16T04:56:42;-2.00;99.90
17891;DHT22;9071;48.220;14.480;2023-03-16T05:01:45;-2.10;99.90
17891;DHT22;9071;48.220;14.480;2023-03-16T05:06:48;-2.20;99.90
17891;DHT22;9071;48.220;14.480;2023-03-16T05:11:51;-2.30;99.90
17891;DHT22;9071;48.220;14.480;2023-03-16T05:16:54;-2.40;99.90
17891;DHT22;9071;48.220;14.480;2023-03-16T05:21:56;-2.40;99.90
17891;DHT22;9071;48.220;14.480;2023-03-16T05:26:59;-2.50;99.90
17891;DHT22;9071;48.220;14.480;2023-03-16T05:32:05;-2.40;99.90
17891;DHT22;9071;48.220;14.480;2023-03-16T05:37:07;-2.30;99.90
17891;DHT22;9071;48.220;14.480;2023-03-16T05:42:10;-2.30;99.90
17891;DHT22;9071;48.220;14.480;2023-03-16T05:47:13;-2.20;99.90
17891;DHT22;9071;48.220;14.480;2023-03-16T05:52:15;-2.00;99.90
17891;DHT22;9071;48.220;14.480;2023-03-16T05:57:18;-1.70;99.90
17891;DHT22;9071;48.220;14.480;2023-03-16T06:02:21;-1.30;99.90
17891;DHT22;9071;48.220;14.480;2023-03-16T06:07:23;-1.20;99.90
17891;DHT22;9071;48.220;14.480;2023-03-16T06:12:25;-0.30;99.90
17891;DHT22;9071;48.220;14.480;2023-03-16T06:17:29;3.00;99.90
17891;DHT22;9071;48.220;14.480;2023-03-16T06:22:31;4.20;99.90
17891;DHT22;9071;48.220;14.480;2023-03-16T06:27:33;5.30;99.90
17891;DHT22;9071;48.220;14.480;2023-03-16T06:32:37;7.10;99.90
17891;DHT22;9071;48.220;14.480;2023-03-16T06:37:41;8.70;99.90
17891;DHT22;9071;48.220;14.480;2023-03-16T06:42:43;10.10;99.90
17891;DHT22;9071;48.220;14.480;2023-03-16T06:47:47;11.40;99.90
17891;DHT22;9071;48.220;14.480;2023-03-16T06:52:49;11.90;99.90
17891;DHT22;9071;48.220;14.480;2023-03-16T06:57:51;12.80;99.90
17891;DHT22;9071;48.220;14.480;2023-03-16T07:02:55;13.20;99.90
17891;DHT22;9071;48.220;14.480;2023-03-16T07:07:57;12.70;99.90
17891;DHT22;9071;48.220;14.480;2023-03-16T07:12:59;12.30;99.90
17891;DHT22;9071;48.220;14.480;2023-03-16T07:18:03;12.10;99.90
17891;DHT22;9071;48.220;14.480;2023-03-16T07:23:05;10.40;99.90
17891;DHT22;9071;48.220;14.480;2023-03-16T07:28:07;9.10;99.90
17891;DHT22;9071;48.220;14.480;2023-03-16T07:33:10;8.50;99.90
17891;DHT22;9071;48.220;14.480;2023-03-16T07:38:13;9.30;99.90
17891;DHT22;9071;48.220;14.480;2023-03-16T07:43:15;10.60;99.90
17891;DHT22;9071;48.220;14.480;2023-03-16T07:48:19;12.10;99.90
17891;DHT22;9071;48.220;14.480;2023-03-16T07:53:22;12.40;99.90
17891;DHT22;9071;48.220;14.480;2023-03-16T07:58:24;11.20;99.90
17891;DHT22;9071;48.220;14.480;2023-03-16T08:03:28;12.40;99.90
17891;DHT22;9071;48.220;14.480;2023-03-16T08:08:31;11.40;99.90
17891;DHT22;9071;48.220;14.480;2023-03-16T08:13:33;13.80;99.90
17891;DHT22;9071;48.220;14.480;2023-03-16T08:18:37;12.20;99.90
17891;DHT22;9071;48.220;14.480;2023-03-16T08:23:39;13.00;99.90
17891;DHT22;9071;48.220;14.480;2023-03-16T08:28:44;13.00;99.90
17891;DHT22;9071;48.220;14.480;2023-03-16T08:33:48;13.20;99.90
17891;DHT22;9071;48.220;14.480;2023-03-16T08:38:51;13.50;99.90
17891;DHT22;9071;48.220;14.480;2023-03-16T08:43:54;14.00;99.90
17891;DHT22;9071;48.220;14.480;2023-03-16T08:48:58;13.80;99.90
17891;DHT22;9071;48.220;14.480;2023-03-16T08:54:00;13.20;99.90
17891;DHT22;9071;48.220;14.480;2023-03-16T08:59:02;11.20;99.90
17891;DHT22;9071;48.220;14.480;2023-03-16T09:04:06;11.00;99.90
17891;DHT22;9071;48.220;14.480;2023-03-16T09:09:08;8.60;99.90
17891;DHT22;9071;48.220;14.480;2023-03-16T09:14:11;8.70;99.90
17891;DHT22;9071;48.220;14.480;2023-03-16T09:19:15;8.70;99.90
17891;DHT22;9071;48.220;14.480;2023-03-16T09:24:17;7.40;99.90
17891;DHT22;9071;48.220;14.480;2023-03-16T09:29:19;7.50;99.90
17891;DHT22;9071;48.220;14.480;2023-03-16T09:34:23;7.20;99.90
17891;DHT22;9071;48.220;14.480;2023-03-16T09:39:25;7.30;99.90
17891;DHT22;9071;48.220;14.480;2023-03-16T09:44:33;7.40;99.90
17891;DHT22;9071;48.220;14.480;2023-03-16T09:49:43;7.40;99.90
17891;DHT22;9071;48.220;14.480;2023-03-16T09:54:50;7.40;99.90
17891;DHT22;9071;48.220;14.480;2023-03-16T09:59:54;7.30;99.90
17891;DHT22;9071;48.220;14.480;2023-03-16T10:05:06;7.40;99.90
17891;DHT22;9071;48.220;14.480;2023-03-16T10:10:20;7.30;99.90
17891;DHT22;9071;48.220;14.480;2023-03-16T10:15:26;7.60;99.90
17891;DHT22;9071;48.220;14.480;2023-03-16T10:20:33;7.70;99.90
17891;DHT22;9071;48.220;14.480;2023-03-16T10:25:42;8.30;99.90
17891;DHT22;9071;48.220;14.480;2023-03-16T10:30:46;8.70;99.90
17891;DHT22;9071;48.220;14.480;2023-03-16T10:35:54;8.80;99.90
17891;DHT22;9071;48.220;14.480;2023-03-16T10:40:59;9.00;99.90
17891;DHT22;9071;48.220;14.480;2023-03-16T10:46:01;8.80;99.90
17891;DHT22;9071;48.220;14.480;2023-03-16T10:51:07;8.90;99.90
17891;DHT22;9071;48.220;14.480;2023-03-16T10:56:18;9.00;99.90
17891;DHT22;9071;48.220;14.480;2023-03-16T11:01:22;8.80;99.90
17891;DHT22;9071;48.220;14.480;2023-03-16T11:06:28;8.80;99.90
17891;DHT22;9071;48.220;14.480;2023-03-16T11:11:32;8.80;99.90
17891;DHT22;9071;48.220;14.480;2023-03-16T11:16:38;9.00;99.90
17891;DHT22;9071;48.220;14.480;2023-03-16T11:21:48;8.90;99.90
17891;DHT22;9071;48.220;14.480;2023-03-16T11:26:57;8.90;99.90
17891;DHT22;9071;48.220;14.480;2023-03-16T11:32:03;9.10;99.90
17891;DHT22;9071;48.220;14.480;2023-03-16T11:37:16;9.30;99.90
17891;DHT22;9071;48.220;14.480;2023-03-16T11:42:41;9.00;99.90
17891;DHT22;9071;48.220;14.480;2023-03-16T11:48:21;8.90;99.90
17891;DHT22;9071;48.220;14.480;2023-03-16T11:53:48;9.00;99.90
17891;DHT22;9071;48.220;14.480;2023-03-16T11:59:14;9.60;99.90
17891;DHT22;9071;48.220;14.480;2023-03-16T12:04:29;10.10;99.90
17891;DHT22;9071;48.220;14.480;2023-03-16T12:10:01;10.00;99.90
17891;DHT22;9071;48.220;14.480;2023-03-16T12:15:17;9.50;99.90
17891;DHT22;9071;48.220;14.480;2023-03-16T12:20:24;10.00;99.90
17891;DHT22;9071;48.220;14.480;2023-03-16T12:25:31;10.20;99.90
17891;DHT22;9071;48.220;14.480;2023-03-16T12:30:39;10.50;99.90
17891;DHT22;9071;48.220;14.480;2023-03-16T12:35:50;9.40;99.90
17891;DHT22;9071;48.220;14.480;2023-03-16T12:41:00;9.90;99.90
17891;DHT22;9071;48.220;14.480;2023-03-16T12:46:10;9.80;99.90
17891;DHT22;9071;48.220;14.480;2023-03-16T12:51:13;9.60;99.90
17891;DHT22;9071;48.220;14.480;2023-03-16T12:56:26;9.30;99.90
17891;DHT22;9071;48.220;14.480;2023-03-16T13:01:35;9.70;99.90
17891;DHT22;9071;48.220;14.480;2023-03-16T13:06:42;9.60;99.90
17891;DHT22;9071;48.220;14.480;2023-03-16T13:11:48;9.20;99.90
17891;DHT22;9071;48.220;14.480;2023-03-16T13:16:51;9.20;99.90
17891;DHT22;9071;48.220;14.480;2023-03-16T13:22:19;9.60;99.90
17891;DHT22;9071;48.220;14.480;2023-03-16T13:27:31;9.20;99.90
17891;DHT22;9071;48.220;14.480;2023-03-16T13:32:34;9.30;99.90
17891;DHT22;9071;48.220;14.480;2023-03-16T13:37:37;9.80;99.90
17891;DHT22;9071;48.220;14.480;2023-03-16T13:42:46;9.80;99.90
17891;DHT22;9071;48.220;14.480;2023-03-16T13:47:49;9.90;99.90
17891;DHT22;9071;48.220;14.480;2023-03-16T13:52:56;9.40;94.90
17891;DHT22;9071;48.220;14.480;2023-03-16T13:58:01;9.40;98.00
17891;DHT22;9071;48.220;14.480;2023-03-16T14:03:12;9.50;97.50
17891;DHT22;9071;48.220;14.480;2023-03-16T14:08:18;9.80;97.40
17891;DHT22;9071;48.220;14.480;2023-03-16T14:13:33;10.00;96.30
17891;DHT22;9071;48.220;14.480;2023-03-16T14:18:40;9.80;97.70
17891;DHT22;9071;48.220;14.480;2023-03-16T14:23:44;10.00;99.00
17891;DHT22;9071;48.220;14.480;2023-03-16T14:28:56;10.00;97.90
17891;DHT22;9071;48.220;14.480;2023-03-16T14:34:04;10.20;97.50
17891;DHT22;9071;48.220;14.480;2023-03-16T14:39:13;10.20;97.40
17891;DHT22;9071;48.220;14.480;2023-03-16T14:44:21;10.10;98.40
17891;DHT22;9071;48.220;14.480;2023-03-16T14:49:26;10.00;97.80
17891;DHT22;9071;48.220;14.480;2023-03-16T14:54:29;9.80;98.20
17891;DHT22;9071;48.220;14.480;2023-03-16T14:59:33;9.80;97.50
17891;DHT22;9071;48.220;14.480;2023-03-16T15:04:35;9.80;98.10
17891;DHT22;9071;48.220;14.480;2023-03-16T15:09:39;10.00;97.10
17891;DHT22;9071;48.220;14.480;2023-03-16T15:14:45;9.90;98.30
17891;DHT22;9071;48.220;14.480;2023-03-16T15:20:05;10.00;98.10
17891;DHT22;9071;48.220;14.480;2023-03-16T15:25:19;9.90;96.80
17891;DHT22;9071;48.220;14.480;2023-03-16T15:30:25;9.90;96.50
17891;DHT22;9071;48.220;14.480;2023-03-16T15:35:30;9.80;97.20
17891;DHT22;9071;48.220;14.480;2023-03-16T15:40:33;9.70;97.00
17891;DHT22;9071;48.220;14.480;2023-03-16T15:45:37;9.70;97.90
17891;DHT22;9071;48.220;14.480;2023-03-16T15:50:41;9.70;95.60
17891;DHT22;9071;48.220;14.480;2023-03-16T15:55:45;9.60;95.70
17891;DHT22;9071;48.220;14.480;2023-03-16T16:00:50;9.50;97.00
17891;DHT22;9071;48.220;14.480;2023-03-16T16:05:54;9.30;96.70
17891;DHT22;9071;48.220;14.480;2023-03-16T16:10:57;9.10;95.90
17891;DHT22;9071;48.220;14.480;2023-03-16T16:16:00;9.00;96.60
17891;DHT22;9071;48.220;14.480;2023-03-16T16:21:04;8.90;97.50
17891;DHT22;9071;48.220;14.480;2023-03-16T16:26:19;8.80;97.80
17891;DHT22;9071;48.220;14.480;2023-03-16T16:31:27;8.70;98.30
17891;DHT22;9071;48.220;14.480;2023-03-16T16:36:29;8.60;98.00
17891;DHT22;9071;48.220;14.480;2023-03-16T16:41:32;8.40;98.50
17891;DHT22;9071;48.220;14.480;2023-03-16T16:46:38;8.20;98.50
17891;DHT22;9071;48.220;14.480;2023-03-16T16:51:41;8.00;99.40
17891;DHT22;9071;48.220;14.480;2023-03-16T16:56:43;7.70;99.90
17891;DHT22;9071;48.220;14.480;2023-03-16T17:01:48;7.40;99.90
17891;DHT22;9071;48.220;14.480;2023-03-16T17:06:52;7.20;99.90
17891;DHT22;9071;48.220;14.480;2023-03-16T17:11:57;7.00;99.90
17891;DHT22;9071;48.220;14.480;2023-03-16T17:17:02;6.90;99.90
17891;DHT22;9071;48.220;14.480;2023-03-16T17:22:19;6.80;99.90
17891;DHT22;9071;48.220;14.480;2023-03-16T17:27:24;6.50;99.90
17891;DHT22;9071;48.220;14.480;2023-03-16T17:32:28;6.40;99.90
17891;DHT22;9071;48.220;14.480;2023-03-16T17:37:31;6.30;99.90
17891;DHT22;9071;48.220;14.480;2023-03-16T17:42:33;6.20;99.90
17891;DHT22;9071;48.220;14.480;2023-03-16T17:47:36;6.10;99.90
17891;DHT22;9071;48.220;14.480;2023-03-16T17:52:39;6.00;99.90
17891;DHT22;9071;48.220;14.480;2023-03-16T17:57:41;6.00;99.90
17891;DHT22;9071;48.220;14.480;2023-03-16T18:02:48;6.00;99.90
17891;DHT22;9071;48.220;14.480;2023-03-16T18:07:51;6.10;99.90
17891;DHT22;9071;48.220;14.480;2023-03-16T18:12:57;6.00;99.90
17891;DHT22;9071;48.220;14.480;2023-03-16T18:18:03;6.00;99.90
17891;DHT22;9071;48.220;14.480;2023-03-16T18:23:13;5.80;99.90
17891;DHT22;9071;48.220;14.480;2023-03-16T18:28:16;5.70;99.90
17891;DHT22;9071;48.220;14.480;2023-03-16T18:33:26;5.60;99.90
17891;DHT22;9071;48.220;14.480;2023-03-16T18:38:31;5.60;99.90
17891;DHT22;9071;48.220;14.480;2023-03-16T18:43:34;5.40;99.90
17891;DHT22;9071;48.220;14.480;2023-03-16T18:48:37;5.40;99.90
17891;DHT22;9071;48.220;14.480;2023-03-16T18:53:39;5.20;99.90
17891;DHT22;9071;48.220;14.480;2023-03-16T18:58:41;5.10;99.90
17891;DHT22;9071;48.220;14.480;2023-03-16T19:03:45;5.00;99.90
17891;DHT22;9071;48.220;14.480;2023-03-16T19:08:47;4.90;99.90
17891;DHT22;9071;48.220;14.480;2023-03-16T19:13:49;4.80;99.90
17891;DHT22;9071;48.220;14.480;2023-03-16T19:18:54;4.80;99.90
17891;DHT22;9071;48.220;14.480;2023-03-16T19:23:58;4.80;99.90
17891;DHT22;9071;48.220;14.480;2023-03-16T19:29:02;4.50;99.90
17891;DHT22;9071;48.220;14.480;2023-03-16T19:34:12;4.50;99.90
17891;DHT22;9071;48.220;14.480;2023-03-16T19:39:16;4.20;99.90
17891;DHT22;9071;48.220;14.480;2023-03-16T19:44:19;4.10;99.90
17891;DHT22;9071;48.220;14.480;2023-03-16T19:49:25;4.20;99.90
17891;DHT22;9071;48.220;14.480;2023-03-16T19:54:28;4.30;99.90
17891;DHT22;9071;48.220;14.480;2023-03-16T19:59:32;4.30;99.90
17891;DHT22;9071;48.220;14.480;2023-03-16T20:04:36;4.20;99.90
17891;DHT22;9071;48.220;14.480;2023-03-16T20:09:38;4.20;99.90
17891;DHT22;9071;48.220;14.480;2023-03-16T20:14:40;4.10;99.90
17891;DHT22;9071;48.220;14.480;2023-03-16T20:19:44;3.90;99.90
17891;DHT22;9071;48.220;14.480;2023-03-16T20:24:46;4.00;99.90
17891;DHT22;9071;48.220;14.480;2023-03-16T20:29:50;4.10;99.90
17891;DHT22;9071;48.220;14.480;2023-03-16T20:34:54;4.10;99.90
17891;DHT22;9071;48.220;14.480;2023-03-16T20:39:57;4.10;99.90
17891;DHT22;9071;48.220;14.480;2023-03-16T20:45:00;4.10;99.90
17891;DHT22;9071;48.220;14.480;2023-03-16T20:50:04;4.00;99.90
17891;DHT22;9071;48.220;14.480;2023-03-16T20:55:08;3.80;99.90
17891;DHT22;9071;48.220;14.480;2023-03-16T21:00:31;3.80;99.90
17891;DHT22;9071;48.220;14.480;2023-03-16T21:05:35;3.70;99.90
17891;DHT22;9071;48.220;14.480;2023-03-16T21:10:38;3.70;99.90
17891;DHT22;9071;48.220;14.480;2023-03-16T21:15:40;3.60;99.90
17891;DHT22;9071;48.220;14.480;2023-03-16T21:20:45;3.60;99.90
17891;DHT22;9071;48.220;14.480;2023-03-16T21:25:49;3.70;99.90
17891;DHT22;9071;48.220;14.480;2023-03-16T21:30:54;3.70;99.90
17891;DHT22;9071;48.220;14.480;2023-03-16T21:35:59;3.80;99.90
17891;DHT22;9071;48.220;14.480;2023-03-16T21:41:01;3.90;99.90
17891;DHT22;9071;48.220;14.480;2023-03-16T21:46:05;3.90;99.90
17891;DHT22;9071;48.220;14.480;2023-03-16T21:51:15;3.90;99.90
17891;DHT22;9071;48.220;14.480;2023-03-16T21:56:19;3.90;99.90
17891;DHT22;9071;48.220;14.480;2023-03-16T22:01:24;3.90;99.90
17891;DHT22;9071;48.220;14.480;2023-03-16T22:06:28;3.70;99.90
17891;DHT22;9071;48.220;14.480;2023-03-16T22:11:31;3.40;99.90
17891;DHT22;9071;48.220;14.480;2023-03-16T22:16:35;3.30;99.90
17891;DHT22;9071;48.220;14.480;2023-03-16T22:21:40;3.10;99.90
17891;DHT22;9071;48.220;14.480;2023-03-16T22:26:43;3.00;99.90
17891;DHT22;9071;48.220;14.480;2023-03-16T22:31:46;2.80;99.90
17891;DHT22;9071;48.220;14.480;2023-03-16T22:36:50;2.80;99.90
17891;DHT22;9071;48.220;14.480;2023-03-16T22:41:52;2.70;99.90
17891;DHT22;9071;48.220;14.480;2023-03-16T22:46:54;2.60;99.90
17891;DHT22;9071;48.220;14.480;2023-03-16T22:51:58;2.60;99.90
17891;DHT22;9071;48.220;14.480;2023-03-16T22:57:01;2.30;99.90
17891;DHT22;9071;48.220;14.480;2023-03-16T23:02:05;2.10;99.90
17891;DHT22;9071;48.220;14.480;2023-03-16T23:07:11;1.90;99.90
17891;DHT22;9071;48.220;14.480;2023-03-16T23:12:16;1.70;99.90
17891;DHT22;9071;48.220;14.480;2023-03-16T23:17:21;1.50;99.90
17891;DHT22;9071;48.220;14.480;2023-03-16T23:22:24;1.40;99.90
17891;DHT22;9071;48.220;14.480;2023-03-16T23:27:27;1.40;99.90
17891;DHT22;9071;48.220;14.480;2023-03-16T23:32:29;1.20;99.90
17891;DHT22;9071;48.220;14.480;2023-03-16T23:37:32;1.00;99.90
17891;DHT22;9071;48.220;14.480;2023-03-16T23:42:34;0.80;99.90
17891;DHT22;9071;48.220;14.480;2023-03-16T23:47:37;0.70;99.90
17891;DHT22;9071;48.220;14.480;2023-03-16T23:52:40;0.60;99.90
17891;DHT22;9071;48.220;14.480;2023-03-16T23:57:42;0.50;99.90
